createdAt,value
2023-02-09T00:04:03.687Z,102251.50
2023-02-09T00:09:09.136Z,102253.66
2023-02-09T00:14:11.789Z,102256.53
2023-02-09T00:19:14.183Z,102264.91
2023-02-09T00:24:16.020Z,102251.06
2023-02-09T00:29:22.344Z,102247.00
2023-02-09T00:34:24.707Z,102254.31
2023-02-09T00:39:26.427Z,102254.44
2023-02-09T00:44:28.293Z,102250.69
2023-02-09T00:49:30.198Z,102239.94
2023-02-09T00:54:32.041Z,102244.38
2023-02-09T00:59:34.963Z,102237.63
2023-02-09T01:04:37.921Z,102234.44
2023-02-09T01:09:39.725Z,102240.09
2023-02-09T01:14:42.231Z,102231.66
2023-02-09T01:19:43.932Z,102229.19
2023-02-09T01:24:45.674Z,102224.13
2023-02-09T01:29:47.351Z,102223.34
2023-02-09T01:34:52.818Z,102224.31
2023-02-09T01:39:54.471Z,102223.56
2023-02-09T01:45:19.325Z,102208.63
2023-02-09T01:50:21.373Z,102203.47
2023-02-09T01:55:26.326Z,102207.00
2023-02-09T02:00:28.302Z,102201.72
2023-02-09T02:05:31.742Z,102197.38
2023-02-09T02:10:33.431Z,102199.16
2023-02-09T02:15:38.575Z,102196.59
2023-02-09T02:21:02.142Z,102206.28
2023-02-09T02:26:18.847Z,102205.47
2023-02-09T02:31:51.582Z,102207.28
2023-02-09T02:36:58.867Z,102195.91
2023-02-09T02:42:25.499Z,102194.19
2023-02-09T02:47:27.673Z,102190.69
2023-02-09T02:52:29.529Z,102190.72
2023-02-09T02:57:33.397Z,102181.13
2023-02-09T03:02:38.755Z,102179.38
2023-02-09T03:07:40.385Z,102177.59
2023-02-09T03:12:58.116Z,102186.34
2023-02-09T03:18:01.023Z,102189.00
2023-02-09T03:23:04.519Z,102189.91
2023-02-09T03:28:09.344Z,102188.16
2023-02-09T03:33:31.631Z,102182.97
2023-02-09T03:38:33.231Z,102175.94
2023-02-09T03:43:53.071Z,102174.22
2023-02-09T03:48:54.696Z,102171.56
2023-02-09T03:53:56.228Z,102175.16
2023-02-09T03:58:58.234Z,102169.03
2023-02-09T04:04:03.854Z,102168.19
2023-02-09T04:09:05.901Z,102168.22
2023-02-09T04:14:09.110Z,102164.69
2023-02-09T04:19:11.246Z,102168.19
2023-02-09T04:24:13.107Z,102169.06
2023-02-09T04:29:14.779Z,102161.19
2023-02-09T04:34:16.545Z,102165.59
2023-02-09T04:39:18.158Z,102155.97
2023-02-09T04:44:19.796Z,102149.84
2023-02-09T04:49:21.462Z,102144.59
2023-02-09T04:54:23.137Z,102153.34
2023-02-09T04:59:39.083Z,102146.34
2023-02-09T05:04:40.741Z,102141.06
2023-02-09T05:09:42.423Z,102145.44
2023-02-09T05:14:44.034Z,102139.31
2023-02-09T05:19:45.684Z,102131.44
2023-02-09T05:24:47.300Z,102134.91
2023-02-09T05:29:48.944Z,102129.69
2023-02-09T05:34:50.731Z,102129.69
2023-02-09T05:39:52.918Z,102127.94
2023-02-09T05:44:54.625Z,102126.19
2023-02-09T05:49:56.591Z,102126.19
2023-02-09T05:54:58.267Z,102132.31
2023-02-09T06:00:00.121Z,102127.97
2023-02-09T06:05:01.688Z,102127.06
2023-02-09T06:10:03.903Z,102120.09
2023-02-09T06:15:06.018Z,102125.31
2023-02-09T06:20:08.068Z,102137.59
2023-02-09T06:25:09.730Z,102137.59
2023-02-09T06:30:11.928Z,102142.84
2023-02-09T06:35:13.543Z,102138.44
2023-02-09T06:40:15.243Z,102137.56
2023-02-09T06:45:17.609Z,102154.22
2023-02-09T06:50:19.436Z,102149.84
2023-02-09T06:55:21.310Z,102146.34
2023-02-09T07:00:23.906Z,102149.81
2023-02-09T07:05:26.177Z,102142.81
2023-02-09T07:10:27.913Z,102127.09
2023-02-09T07:15:29.528Z,102134.06
2023-02-09T07:20:30.993Z,102137.53
2023-02-09T07:25:34.210Z,102141.94
2023-02-09T07:30:41.017Z,102149.78
2023-02-09T07:35:43.010Z,102149.75
2023-02-09T07:40:46.828Z,102155.88
2023-02-09T07:45:48.689Z,102150.53
2023-02-09T07:50:51.181Z,102147.88
2023-02-09T07:55:53.191Z,102152.19
2023-02-09T08:00:54.883Z,102149.50
2023-02-09T08:06:19.584Z,102149.44
2023-02-09T08:11:48.399Z,102159.84
2023-02-09T08:17:12.966Z,102164.13
2023-02-09T08:22:14.731Z,102164.00
2023-02-09T08:27:16.514Z,102165.63
2023-02-09T08:32:18.300Z,102170.75
2023-02-09T08:37:19.961Z,102167.09
2023-02-09T08:42:21.520Z,102159.94
2023-02-09T08:47:23.219Z,102160.63
2023-02-09T08:52:25.677Z,102163.94
2023-02-09T08:57:41.672Z,102160.25
2023-02-09T09:02:44.970Z,102149.44
2023-02-09T09:07:46.675Z,102148.25
2023-02-09T09:12:48.366Z,102153.28
2023-02-09T09:17:50.068Z,102153.75
2023-02-09T09:22:51.777Z,102158.69
2023-02-09T09:27:53.419Z,102164.47
2023-02-09T09:32:55.316Z,102151.69
2023-02-09T09:37:58.803Z,102147.78
2023-02-09T09:43:03.277Z,102143.88
2023-02-09T09:48:07.004Z,102141.03
2023-02-09T09:53:17.241Z,102146.94
2023-02-09T09:58:19.006Z,102143.94
2023-02-09T10:03:22.633Z,102145.41
2023-02-09T10:08:44.821Z,102141.81
2023-02-09T10:13:52.213Z,102131.06
2023-02-09T10:18:59.884Z,102128.06
2023-02-09T10:24:01.540Z,102132.91
2023-02-09T10:29:12.130Z,102123.75
2023-02-09T10:34:17.187Z,102110.03
2023-02-09T10:39:22.859Z,102108.50
2023-02-09T10:44:28.885Z,102097.66
2023-02-09T10:49:35.280Z,102094.88
2023-02-09T10:54:45.080Z,102092.72
2023-02-09T10:59:52.505Z,102079.00
2023-02-09T11:04:54.140Z,102072.25
2023-02-09T11:09:57.238Z,102067.13
2023-02-09T11:14:59.180Z,102061.53
2023-02-09T11:20:30.780Z,102051.31
2023-02-09T11:25:43.557Z,102042.91
2023-02-09T11:31:26.832Z,102036.22
2023-02-09T11:36:41.191Z,102023.19
2023-02-09T11:42:04.429Z,102004.91
2023-02-09T11:47:08.284Z,102000.44
2023-02-09T11:52:14.346Z,101991.56
2023-02-09T11:57:22.791Z,101987.44
2023-02-09T12:02:46.090Z,101964.06
2023-02-09T12:08:12.756Z,101955.84
2023-02-09T12:13:17.139Z,101958.88
2023-02-09T12:18:22.839Z,101944.06
2023-02-09T12:23:38.288Z,101944.25
2023-02-09T12:29:04.554Z,101945.72
2023-02-09T12:34:14.900Z,101928.38
2023-02-09T12:39:25.133Z,101908.63
2023-02-09T12:44:26.814Z,101898.56
2023-02-09T12:49:28.468Z,101880.44
2023-02-09T12:54:46.370Z,101866.56
2023-02-09T12:59:51.153Z,101878.97
2023-02-09T13:05:01.237Z,101878.19
2023-02-09T13:10:24.856Z,101872.97
2023-02-09T13:15:29.305Z,101862.84
2023-02-09T13:20:46.362Z,101867.44
2023-02-09T13:25:49.160Z,101869.03
2023-02-09T13:30:50.824Z,101844.97
2023-02-09T13:36:25.191Z,101836.84
2023-02-09T13:41:36.807Z,101835.16
2023-02-09T13:46:39.396Z,101848.72
2023-02-09T13:51:41.004Z,101850.72
2023-02-09T13:56:42.793Z,101851.84
2023-02-09T14:01:47.753Z,101859.31
2023-02-09T14:06:53.260Z,101872.78
2023-02-09T14:12:03.889Z,101859.25
2023-02-09T14:17:22.907Z,101869.25
2023-02-09T14:22:29.923Z,101867.56
2023-02-09T14:27:33.134Z,101883.69
2023-02-09T14:32:36.811Z,101888.31
2023-02-09T14:37:38.575Z,101886.97
2023-02-09T14:43:18.446Z,101872.91
2023-02-09T14:48:22.435Z,101881.78
2023-02-09T14:53:27.578Z,101876.69
2023-02-09T14:58:31.150Z,101879.28
2023-02-09T15:03:35.647Z,101868.81
2023-02-09T15:08:38.945Z,101870.69
2023-02-09T15:13:40.778Z,101862.81
2023-02-09T15:18:42.576Z,101867.41
2023-02-09T15:23:44.205Z,101867.09
2023-02-09T15:28:46.152Z,101866.28
2023-02-09T15:33:47.798Z,101861.06
2023-02-09T15:38:49.476Z,101867.81
2023-02-09T15:44:09.645Z,101884.25
2023-02-09T15:49:11.375Z,101866.72
2023-02-09T15:54:19.323Z,101884.28
2023-02-09T15:59:22.752Z,101885.28
2023-02-09T16:04:24.379Z,101900.09
2023-02-09T16:09:27.815Z,101887.56
2023-02-09T16:14:31.652Z,101894.81
2023-02-09T16:19:33.517Z,101890.16
2023-02-09T16:24:44.290Z,101898.03
2023-02-09T16:29:45.919Z,101905.78
2023-02-09T16:34:47.765Z,101911.97
2023-02-09T16:39:49.419Z,101891.69
2023-02-09T16:44:51.236Z,101897.63
2023-02-09T16:50:03.663Z,101914.19
2023-02-09T16:55:23.450Z,101927.50
2023-02-09T17:00:28.074Z,101942.66
2023-02-09T17:05:32.146Z,101936.00
2023-02-09T17:10:35.347Z,101927.31
2023-02-09T17:15:41.988Z,101937.66
2023-02-09T17:20:50.231Z,101955.38
2023-02-09T17:25:55.285Z,101955.41
2023-02-09T17:30:59.555Z,101951.84
2023-02-09T17:41:34.529Z,101962.69
2023-02-09T17:46:36.283Z,101988.63
2023-02-09T17:51:40.569Z,101982.72
2023-02-09T17:56:42.539Z,101985.84
2023-02-09T18:01:46.521Z,101995.56
2023-02-09T18:06:48.769Z,101987.09
2023-02-09T18:11:58.394Z,101979.50
2023-02-09T18:17:00.759Z,101967.84
2023-02-09T18:22:03.119Z,101975.78
2023-02-09T18:27:05.663Z,101973.34
2023-02-09T18:32:07.354Z,101969.75
2023-02-09T18:37:08.964Z,101979.06
2023-02-09T18:42:12.990Z,101962.63
2023-02-09T18:47:15.019Z,101969.94
2023-02-09T18:52:21.046Z,101973.75
2023-02-09T18:57:22.719Z,101974.00
2023-02-09T19:02:24.503Z,101969.81
2023-02-09T19:07:29.890Z,101962.09
2023-02-09T19:12:31.673Z,101965.66
2023-02-09T19:17:34.558Z,101967.31
2023-02-09T19:22:37.335Z,101958.50
2023-02-09T19:27:39.546Z,101967.81
2023-02-09T19:32:41.232Z,101961.81
2023-02-09T19:37:42.867Z,101970.91
2023-02-09T19:42:44.501Z,101974.47
2023-02-09T19:47:46.139Z,101988.75
2023-02-09T19:52:49.099Z,101984.31
2023-02-09T19:57:50.837Z,101969.88
2023-02-09T20:02:52.655Z,101973.00
2023-02-09T20:07:54.545Z,101981.91
2023-02-09T20:12:56.209Z,101985.53
2023-02-09T20:17:57.991Z,101996.22
2023-02-09T20:23:02.290Z,101988.50
2023-02-09T20:28:04.150Z,101978.94
2023-02-09T20:33:05.822Z,101975.53
2023-02-09T20:38:07.809Z,101983.38
2023-02-09T20:43:30.334Z,101975.53
2023-02-09T20:48:32.087Z,101976.13
2023-02-09T20:53:33.748Z,101970.44
2023-02-09T20:58:42.180Z,101962.47
2023-02-09T21:03:51.591Z,101960.50
2023-02-09T21:08:53.706Z,101955.28
2023-02-09T21:13:55.765Z,101950.59
2023-02-09T21:18:58.198Z,101961.31
2023-02-09T21:24:00.471Z,101966.81
2023-02-09T21:29:02.539Z,101975.97
2023-02-09T21:34:04.607Z,101988.53
2023-02-09T21:39:06.447Z,101998.56
2023-02-09T21:44:12.685Z,102005.13
2023-02-09T21:49:14.348Z,102012.47
2023-02-09T21:54:17.113Z,102009.19
2023-02-09T21:59:18.815Z,102017.19
2023-02-09T22:04:21.013Z,102021.44
2023-02-09T22:09:24.750Z,102023.91
2023-02-09T22:14:26.467Z,102033.50
2023-02-09T22:19:28.273Z,102035.25
2023-02-09T22:24:34.571Z,102045.06
2023-02-09T22:29:36.533Z,102040.88
2023-02-09T22:34:38.265Z,102045.03
2023-02-09T22:39:40.004Z,102025.56
2023-02-09T22:44:41.688Z,102025.72
2023-02-09T22:49:45.516Z,102037.56
2023-02-09T22:54:47.172Z,102029.03
2023-02-09T22:59:48.826Z,102035.78
2023-02-09T23:04:50.505Z,102034.25
2023-02-09T23:09:52.203Z,102021.00
2023-02-09T23:14:54.795Z,102031.97
2023-02-09T23:19:56.489Z,102037.72
2023-02-09T23:24:59.669Z,102037.94
2023-02-09T23:30:02.575Z,102030.00
2023-02-09T23:35:06.188Z,102022.84
2023-02-09T23:40:08.234Z,102027.31
2023-02-09T23:45:09.877Z,102039.84
2023-02-09T23:50:11.525Z,102038.28
2023-02-09T23:55:13.284Z,102050.53
